Mount Vernon, IL

12:49 PM CDT on September 02, 2015 (GMT -0500)
Mount Vernon | | Change Station
CLOSE
Current Station
Airport
Location: Mount Vernon,
Elevation: 479 ft
Nearby Weather Stations

Elev 479 ft 38.32 °N, 88.86 °W | Updated 14 minutes ago

Clear
Clear
90 °F
Feels Like 95 °F
N
8
Wind Variable Wind from South

Today
High -- | Low -- °F
--% Chance of Precip.
Yesterday
High -- | Low -- °F
Precip. -- in
6:25 AM 7:24 PM
Waning Gibbous, 78% visible
Pressure 30.10 in
Visibility 6.0 miles
Clouds Clear
Heat Index 95 °F
Dew Point 70 °F
Humidity 52%
Rainfall 0.00 in
Snow Depth Not available.
UV 10 out of 12
Pollen 10.50 out of 12
Air Quality Not available.
Flu Activity Not available.
METAR KMVN 021735Z AUTO 17007KT 6SM CLR 32/21 A3010 RMK AO1
Pressure 30.10 in
Visibility 6.0 miles
Clouds Clear
Heat Index 95 °F
Dew Point 70 °F
Humidity 52%
Rainfall 0.00 in
Snow Depth Not available.
UV 10 out of 12
Pollen 10.50 out of 12
Air Quality Not available.
Flu Activity Not available.
METAR KMVN 021735Z AUTO 17007KT 6SM CLR 32/21 A3010 RMK AO1

10-Day Weather Forecast

×

Almanac

Astronomy

Sep. 02, 2015 Rise Set
Actual Time
Civil Twilight
Nautical Twilight
Astronomical Twilight
Moon
Length of Visible Light
Length of Day
Tomorrow will be .
, % of the Moon is Illuminated

Today's Extremes

State Highs State Lows

Community

WunderPhotos

Upload Photos

1,851,789 photos uploaded!

WunderBlogs® & News

Nearby

Air Quality

  Air Quality AQ Index Pollutant
Not available.

Snow Depth

Station Depth Elevation

Earthquake Activity

City Distance Mag. Time & Date
Minimum magnitude displayed is 2.5.

Coastal Water Temperatures

Place Temperature

Stations

Nearby Weather Stations

Station Location Temp. Windchill Dew Point Humidity Wind Precip. Elev Updated Type